sensor_id;sensor_type;location;lat;lon;timestamp;temperature;humidity
3628;DHT22;1830;49.000;12.074;2022-10-31T00:00:59;10.80;99.90
3628;DHT22;1830;49.000;12.074;2022-10-31T00:03:26;10.80;99.90
3628;DHT22;1830;49.000;12.074;2022-10-31T00:05:53;10.80;99.90
3628;DHT22;1830;49.000;12.074;2022-10-31T00:08:20;10.70;99.90
3628;DHT22;1830;49.000;12.074;2022-10-31T00:10:47;10.70;99.90
3628;DHT22;1830;49.000;12.074;2022-10-31T00:13:14;10.60;99.90
3628;DHT22;1830;49.000;12.074;2022-10-31T00:15:41;10.70;99.90
3628;DHT22;1830;49.000;12.074;2022-10-31T00:18:10;10.70;99.90
3628;DHT22;1830;49.000;12.074;2022-10-31T00:20:37;10.70;99.90
3628;DHT22;1830;49.000;12.074;2022-10-31T00:23:05;10.60;99.90
3628;DHT22;1830;49.000;12.074;2022-10-31T00:25:34;10.60;99.90
3628;DHT22;1830;49.000;12.074;2022-10-31T00:28:01;10.60;99.90
3628;DHT22;1830;49.000;12.074;2022-10-31T00:30:28;10.60;99.90
3628;DHT22;1830;49.000;12.074;2022-10-31T00:32:55;10.60;99.90
3628;DHT22;1830;49.000;12.074;2022-10-31T00:35:24;10.50;99.90
3628;DHT22;1830;49.000;12.074;2022-10-31T00:37:52;10.50;99.90
3628;DHT22;1830;49.000;12.074;2022-10-31T00:40:19;10.50;99.90
3628;DHT22;1830;49.000;12.074;2022-10-31T00:42:46;10.50;99.90
3628;DHT22;1830;49.000;12.074;2022-10-31T00:45:14;10.50;99.90
3628;DHT22;1830;49.000;12.074;2022-10-31T00:47:41;10.50;99.90
3628;DHT22;1830;49.000;12.074;2022-10-31T00:50:11;10.50;99.90
3628;DHT22;1830;49.000;12.074;2022-10-31T00:52:39;10.40;99.90
3628;DHT22;1830;49.000;12.074;2022-10-31T00:55:16;10.30;99.90
3628;DHT22;1830;49.000;12.074;2022-10-31T00:57:46;10.30;99.90
3628;DHT22;1830;49.000;12.074;2022-10-31T01:00:13;10.40;99.90
3628;DHT22;1830;49.000;12.074;2022-10-31T01:02:40;10.40;99.90
3628;DHT22;1830;49.000;12.074;2022-10-31T01:05:09;10.40;99.90
3628;DHT22;1830;49.000;12.074;2022-10-31T01:07:36;10.40;99.90
3628;DHT22;1830;49.000;12.074;2022-10-31T01:10:06;10.40;99.90
3628;DHT22;1830;49.000;12.074;2022-10-31T01:12:36;10.40;99.90
3628;DHT22;1830;49.000;12.074;2022-10-31T01:15:03;10.40;99.90
3628;DHT22;1830;49.000;12.074;2022-10-31T01:17:31;10.30;99.90
3628;DHT22;1830;49.000;12.074;2022-10-31T01:19:58;10.30;99.90
3628;DHT22;1830;49.000;12.074;2022-10-31T01:22:25;10.30;99.90
3628;DHT22;1830;49.000;12.074;2022-10-31T01:24:54;10.30;99.90
3628;DHT22;1830;49.000;12.074;2022-10-31T01:27:23;10.30;99.90
3628;DHT22;1830;49.000;12.074;2022-10-31T01:29:50;10.20;99.90
3628;DHT22;1830;49.000;12.074;2022-10-31T01:32:17;10.20;99.90
3628;DHT22;1830;49.000;12.074;2022-10-31T01:34:43;10.10;99.90
3628;DHT22;1830;49.000;12.074;2022-10-31T01:37:10;10.10;99.90
3628;DHT22;1830;49.000;12.074;2022-10-31T01:39:38;10.10;99.90
3628;DHT22;1830;49.000;12.074;2022-10-31T01:42:05;10.00;99.90
3628;DHT22;1830;49.000;12.074;2022-10-31T01:44:54;10.00;99.90
3628;DHT22;1830;49.000;12.074;2022-10-31T01:47:39;10.00;99.90
3628;DHT22;1830;49.000;12.074;2022-10-31T01:50:24;9.90;99.90
3628;DHT22;1830;49.000;12.074;2022-10-31T01:52:53;9.90;99.90
3628;DHT22;1830;49.000;12.074;2022-10-31T01:55:24;9.90;99.90
3628;DHT22;1830;49.000;12.074;2022-10-31T01:57:55;9.90;99.90
3628;DHT22;1830;49.000;12.074;2022-10-31T02:00:25;9.90;99.90
3628;DHT22;1830;49.000;12.074;2022-10-31T02:02:52;9.90;99.90
3628;DHT22;1830;49.000;12.074;2022-10-31T02:05:24;9.90;99.90
3628;DHT22;1830;49.000;12.074;2022-10-31T02:07:54;9.80;99.90
3628;DHT22;1830;49.000;12.074;2022-10-31T02:10:23;9.80;99.90
3628;DHT22;1830;49.000;12.074;2022-10-31T02:12:51;9.80;99.90
3628;DHT22;1830;49.000;12.074;2022-10-31T02:15:20;9.80;99.90
3628;DHT22;1830;49.000;12.074;2022-10-31T02:17:49;9.70;99.90
3628;DHT22;1830;49.000;12.074;2022-10-31T02:20:18;9.70;99.90
3628;DHT22;1830;49.000;12.074;2022-10-31T02:26:29;9.70;99.90
3628;DHT22;1830;49.000;12.074;2022-10-31T02:32:00;9.70;99.90
3628;DHT22;1830;49.000;12.074;2022-10-31T02:34:36;9.70;99.90
3628;DHT22;1830;49.000;12.074;2022-10-31T02:37:12;9.70;99.90
3628;DHT22;1830;49.000;12.074;2022-10-31T02:39:47;9.70;99.90
3628;DHT22;1830;49.000;12.074;2022-10-31T02:42:20;9.80;99.90
3628;DHT22;1830;49.000;12.074;2022-10-31T02:44:55;9.80;99.90
3628;DHT22;1830;49.000;12.074;2022-10-31T02:47:27;9.80;99.90
3628;DHT22;1830;49.000;12.074;2022-10-31T02:49:59;9.90;99.90
3628;DHT22;1830;49.000;12.074;2022-10-31T02:58:21;9.90;99.90
3628;DHT22;1830;49.000;12.074;2022-10-31T03:03:53;9.90;99.90
3628;DHT22;1830;49.000;12.074;2022-10-31T03:06:29;9.80;99.90
3628;DHT22;1830;49.000;12.074;2022-10-31T03:09:03;9.90;99.90
3628;DHT22;1830;49.000;12.074;2022-10-31T03:11:40;9.90;99.90
3628;DHT22;1830;49.000;12.074;2022-10-31T03:14:11;9.90;99.90
3628;DHT22;1830;49.000;12.074;2022-10-31T03:16:45;9.90;99.90
3628;DHT22;1830;49.000;12.074;2022-10-31T03:19:16;9.90;99.90
3628;DHT22;1830;49.000;12.074;2022-10-31T03:21:46;9.90;99.90
3628;DHT22;1830;49.000;12.074;2022-10-31T03:24:14;9.90;99.90
3628;DHT22;1830;49.000;12.074;2022-10-31T03:26:45;9.90;99.90
3628;DHT22;1830;49.000;12.074;2022-10-31T03:29:16;9.90;99.90
3628;DHT22;1830;49.000;12.074;2022-10-31T03:31:47;9.90;99.90
3628;DHT22;1830;49.000;12.074;2022-10-31T03:34:18;10.00;99.90
3628;DHT22;1830;49.000;12.074;2022-10-31T03:36:47;9.90;99.90
3628;DHT22;1830;49.000;12.074;2022-10-31T03:39:18;9.90;99.90
3628;DHT22;1830;49.000;12.074;2022-10-31T03:41:49;9.90;99.90
3628;DHT22;1830;49.000;12.074;2022-10-31T03:44:22;9.90;99.90
3628;DHT22;1830;49.000;12.074;2022-10-31T03:46:49;9.90;99.90
3628;DHT22;1830;49.000;12.074;2022-10-31T03:49:18;9.90;99.90
3628;DHT22;1830;49.000;12.074;2022-10-31T03:51:49;9.90;99.90
3628;DHT22;1830;49.000;12.074;2022-10-31T03:54:24;9.90;99.90
3628;DHT22;1830;49.000;12.074;2022-10-31T03:56:54;9.80;99.90
3628;DHT22;1830;49.000;12.074;2022-10-31T03:59:26;9.80;99.90
3628;DHT22;1830;49.000;12.074;2022-10-31T04:01:57;9.80;99.90
3628;DHT22;1830;49.000;12.074;2022-10-31T04:04:27;9.80;99.90
3628;DHT22;1830;49.000;12.074;2022-10-31T04:06:56;9.70;99.90
3628;DHT22;1830;49.000;12.074;2022-10-31T04:09:25;9.70;99.90
3628;DHT22;1830;49.000;12.074;2022-10-31T04:11:55;9.70;99.90
3628;DHT22;1830;49.000;12.074;2022-10-31T04:14:36;9.70;99.90
3628;DHT22;1830;49.000;12.074;2022-10-31T04:17:08;9.70;99.90
3628;DHT22;1830;49.000;12.074;2022-10-31T04:19:38;9.70;99.90
3628;DHT22;1830;49.000;12.074;2022-10-31T04:22:06;9.70;99.90
3628;DHT22;1830;49.000;12.074;2022-10-31T04:24:33;9.70;99.90
3628;DHT22;1830;49.000;12.074;2022-10-31T04:27:02;9.70;99.90
3628;DHT22;1830;49.000;12.074;2022-10-31T04:29:29;9.80;99.90
3628;DHT22;1830;49.000;12.074;2022-10-31T04:31:57;9.70;99.90
3628;DHT22;1830;49.000;12.074;2022-10-31T04:34:33;9.80;99.90
3628;DHT22;1830;49.000;12.074;2022-10-31T04:37:02;9.80;99.90
3628;DHT22;1830;49.000;12.074;2022-10-31T04:39:44;9.80;99.90
3628;DHT22;1830;49.000;12.074;2022-10-31T04:42:14;9.70;99.90
3628;DHT22;1830;49.000;12.074;2022-10-31T04:44:41;9.70;99.90
3628;DHT22;1830;49.000;12.074;2022-10-31T04:47:07;9.70;99.90
3628;DHT22;1830;49.000;12.074;2022-10-31T04:49:34;9.70;99.90
3628;DHT22;1830;49.000;12.074;2022-10-31T04:52:08;9.70;99.90
3628;DHT22;1830;49.000;12.074;2022-10-31T04:54:47;9.60;99.90
3628;DHT22;1830;49.000;12.074;2022-10-31T04:57:17;9.70;99.90
3628;DHT22;1830;49.000;12.074;2022-10-31T04:59:44;9.60;99.90
3628;DHT22;1830;49.000;12.074;2022-10-31T05:16:03;9.60;99.90
3628;DHT22;1830;49.000;12.074;2022-10-31T05:19:00;9.50;99.90
3628;DHT22;1830;49.000;12.074;2022-10-31T05:22:05;9.50;99.90
3628;DHT22;1830;49.000;12.074;2022-10-31T05:24:46;9.50;99.90
3628;DHT22;1830;49.000;12.074;2022-10-31T05:27:27;9.50;99.90
3628;DHT22;1830;49.000;12.074;2022-10-31T05:29:54;9.50;99.90
3628;DHT22;1830;49.000;12.074;2022-10-31T05:32:24;9.60;99.90
3628;DHT22;1830;49.000;12.074;2022-10-31T05:34:51;9.50;99.90
3628;DHT22;1830;49.000;12.074;2022-10-31T05:37:30;9.50;99.90
3628;DHT22;1830;49.000;12.074;2022-10-31T05:39:58;9.70;99.90
3628;DHT22;1830;49.000;12.074;2022-10-31T05:42:25;9.60;99.90
3628;DHT22;1830;49.000;12.074;2022-10-31T05:44:54;9.60;99.90
3628;DHT22;1830;49.000;12.074;2022-10-31T05:47:23;9.60;99.90
3628;DHT22;1830;49.000;12.074;2022-10-31T05:49:50;9.50;99.90
3628;DHT22;1830;49.000;12.074;2022-10-31T05:52:17;9.50;99.90
3628;DHT22;1830;49.000;12.074;2022-10-31T05:54:44;9.40;99.90
3628;DHT22;1830;49.000;12.074;2022-10-31T05:57:11;9.40;99.90
3628;DHT22;1830;49.000;12.074;2022-10-31T05:59:38;9.40;99.90
3628;DHT22;1830;49.000;12.074;2022-10-31T06:02:05;9.30;99.90
3628;DHT22;1830;49.000;12.074;2022-10-31T06:04:33;9.30;99.90
3628;DHT22;1830;49.000;12.074;2022-10-31T06:07:00;9.30;99.90
3628;DHT22;1830;49.000;12.074;2022-10-31T06:09:37;9.30;99.90
3628;DHT22;1830;49.000;12.074;2022-10-31T06:12:04;9.30;99.90
3628;DHT22;1830;49.000;12.074;2022-10-31T06:14:31;9.30;99.90
3628;DHT22;1830;49.000;12.074;2022-10-31T06:16:58;9.30;99.90
3628;DHT22;1830;49.000;12.074;2022-10-31T06:19:24;9.30;99.90
3628;DHT22;1830;49.000;12.074;2022-10-31T06:21:53;9.30;99.90
3628;DHT22;1830;49.000;12.074;2022-10-31T06:24:20;9.30;99.90
3628;DHT22;1830;49.000;12.074;2022-10-31T06:26:46;9.30;99.90
3628;DHT22;1830;49.000;12.074;2022-10-31T06:29:13;9.30;99.90
3628;DHT22;1830;49.000;12.074;2022-10-31T06:31:40;9.20;99.90
3628;DHT22;1830;49.000;12.074;2022-10-31T06:34:08;9.20;99.90
3628;DHT22;1830;49.000;12.074;2022-10-31T06:36:47;9.20;99.90
3628;DHT22;1830;49.000;12.074;2022-10-31T06:39:15;9.20;99.90
3628;DHT22;1830;49.000;12.074;2022-10-31T06:41:42;9.10;99.90
3628;DHT22;1830;49.000;12.074;2022-10-31T06:44:09;9.20;99.90
3628;DHT22;1830;49.000;12.074;2022-10-31T06:46:48;9.20;99.90
3628;DHT22;1830;49.000;12.074;2022-10-31T06:49:14;9.20;99.90
3628;DHT22;1830;49.000;12.074;2022-10-31T06:51:42;9.30;99.90
3628;DHT22;1830;49.000;12.074;2022-10-31T06:54:09;9.20;99.90
3628;DHT22;1830;49.000;12.074;2022-10-31T06:56:37;9.20;99.90
3628;DHT22;1830;49.000;12.074;2022-10-31T06:59:04;9.20;99.90
3628;DHT22;1830;49.000;12.074;2022-10-31T07:01:31;9.30;99.90
3628;DHT22;1830;49.000;12.074;2022-10-31T07:03:58;9.30;99.90
3628;DHT22;1830;49.000;12.074;2022-10-31T07:06:25;9.30;99.90
3628;DHT22;1830;49.000;12.074;2022-10-31T07:08:52;9.30;99.90
3628;DHT22;1830;49.000;12.074;2022-10-31T07:11:19;9.40;99.90
3628;DHT22;1830;49.000;12.074;2022-10-31T07:13:48;9.40;99.90
3628;DHT22;1830;49.000;12.074;2022-10-31T07:16:15;9.50;99.90
3628;DHT22;1830;49.000;12.074;2022-10-31T07:18:42;9.50;99.90
3628;DHT22;1830;49.000;12.074;2022-10-31T07:21:09;9.50;99.90
3628;DHT22;1830;49.000;12.074;2022-10-31T07:23:36;9.50;99.90
3628;DHT22;1830;49.000;12.074;2022-10-31T07:26:03;9.50;99.90
3628;DHT22;1830;49.000;12.074;2022-10-31T07:28:29;9.50;99.90
3628;DHT22;1830;49.000;12.074;2022-10-31T07:30:58;9.60;99.90
3628;DHT22;1830;49.000;12.074;2022-10-31T07:33:25;9.60;99.90
3628;DHT22;1830;49.000;12.074;2022-10-31T07:35:53;9.70;99.90
3628;DHT22;1830;49.000;12.074;2022-10-31T07:38:20;9.70;99.90
3628;DHT22;1830;49.000;12.074;2022-10-31T07:40:50;9.80;99.90
3628;DHT22;1830;49.000;12.074;2022-10-31T07:43:18;9.80;99.90
3628;DHT22;1830;49.000;12.074;2022-10-31T07:45:49;9.80;99.90
3628;DHT22;1830;49.000;12.074;2022-10-31T07:48:18;9.80;99.90
3628;DHT22;1830;49.000;12.074;2022-10-31T07:50:46;9.80;99.90
3628;DHT22;1830;49.000;12.074;2022-10-31T07:53:14;9.90;99.90
3628;DHT22;1830;49.000;12.074;2022-10-31T07:55:43;9.90;99.90
3628;DHT22;1830;49.000;12.074;2022-10-31T07:58:26;9.80;99.90
3628;DHT22;1830;49.000;12.074;2022-10-31T08:00:57;10.00;99.90
3628;DHT22;1830;49.000;12.074;2022-10-31T08:03:26;9.90;99.90
3628;DHT22;1830;49.000;12.074;2022-10-31T08:05:53;10.00;99.90
3628;DHT22;1830;49.000;12.074;2022-10-31T08:08:20;10.00;99.90
3628;DHT22;1830;49.000;12.074;2022-10-31T08:10:48;10.00;99.90
3628;DHT22;1830;49.000;12.074;2022-10-31T08:13:15;10.00;99.90
3628;DHT22;1830;49.000;12.074;2022-10-31T08:15:42;10.00;99.90
3628;DHT22;1830;49.000;12.074;2022-10-31T08:18:18;10.00;99.90
3628;DHT22;1830;49.000;12.074;2022-10-31T08:23:40;10.10;99.90
3628;DHT22;1830;49.000;12.074;2022-10-31T08:26:12;10.20;99.90
3628;DHT22;1830;49.000;12.074;2022-10-31T08:28:42;10.10;99.90
3628;DHT22;1830;49.000;12.074;2022-10-31T08:31:12;10.10;99.90
3628;DHT22;1830;49.000;12.074;2022-10-31T08:33:39;10.20;99.90
3628;DHT22;1830;49.000;12.074;2022-10-31T08:36:08;10.10;99.90
3628;DHT22;1830;49.000;12.074;2022-10-31T08:38:35;10.10;99.90
3628;DHT22;1830;49.000;12.074;2022-10-31T08:41:02;10.10;99.90
3628;DHT22;1830;49.000;12.074;2022-10-31T08:43:29;10.00;99.90
3628;DHT22;1830;49.000;12.074;2022-10-31T08:45:56;9.90;99.90
3628;DHT22;1830;49.000;12.074;2022-10-31T08:48:32;9.90;99.90
3628;DHT22;1830;49.000;12.074;2022-10-31T08:50:59;9.90;99.90
3628;DHT22;1830;49.000;12.074;2022-10-31T08:53:28;10.00;99.90
3628;DHT22;1830;49.000;12.074;2022-10-31T08:55:56;10.10;99.90
3628;DHT22;1830;49.000;12.074;2022-10-31T08:58:23;10.10;99.90
3628;DHT22;1830;49.000;12.074;2022-10-31T09:00:52;10.10;99.90
3628;DHT22;1830;49.000;12.074;2022-10-31T09:03:21;10.20;99.90
3628;DHT22;1830;49.000;12.074;2022-10-31T09:05:49;10.20;99.90
3628;DHT22;1830;49.000;12.074;2022-10-31T09:08:17;10.30;99.90
3628;DHT22;1830;49.000;12.074;2022-10-31T09:10:45;10.30;99.90
3628;DHT22;1830;49.000;12.074;2022-10-31T09:13:13;10.30;99.90
3628;DHT22;1830;49.000;12.074;2022-10-31T09:15:43;10.40;99.90
3628;DHT22;1830;49.000;12.074;2022-10-31T09:18:11;10.50;99.90
3628;DHT22;1830;49.000;12.074;2022-10-31T09:20:45;10.50;99.90
3628;DHT22;1830;49.000;12.074;2022-10-31T09:23:15;10.50;99.90
3628;DHT22;1830;49.000;12.074;2022-10-31T09:25:44;10.60;99.90
3628;DHT22;1830;49.000;12.074;2022-10-31T09:28:13;10.60;99.90
3628;DHT22;1830;49.000;12.074;2022-10-31T09:30:46;10.50;99.90
3628;DHT22;1830;49.000;12.074;2022-10-31T09:33:16;10.60;99.90
3628;DHT22;1830;49.000;12.074;2022-10-31T09:35:43;10.60;99.90
3628;DHT22;1830;49.000;12.074;2022-10-31T09:38:12;10.60;99.90
3628;DHT22;1830;49.000;12.074;2022-10-31T09:40:45;10.70;99.90
3628;DHT22;1830;49.000;12.074;2022-10-31T09:47:19;10.70;99.90
3628;DHT22;1830;49.000;12.074;2022-10-31T09:49:58;10.80;99.90
3628;DHT22;1830;49.000;12.074;2022-10-31T09:52:33;10.80;99.90
3628;DHT22;1830;49.000;12.074;2022-10-31T09:58:40;10.80;99.90
3628;DHT22;1830;49.000;12.074;2022-10-31T10:04:09;10.90;99.90
3628;DHT22;1830;49.000;12.074;2022-10-31T10:06:44;10.90;99.90
3628;DHT22;1830;49.000;12.074;2022-10-31T10:16:23;11.00;99.90
3628;DHT22;1830;49.000;12.074;2022-10-31T10:19:34;11.00;99.90
3628;DHT22;1830;49.000;12.074;2022-10-31T10:22:04;11.00;99.90
3628;DHT22;1830;49.000;12.074;2022-10-31T10:25:08;11.10;99.90
3628;DHT22;1830;49.000;12.074;2022-10-31T11:13:42;12.00;99.90
3628;DHT22;1830;49.000;12.074;2022-10-31T11:16:29;12.00;99.90
3628;DHT22;1830;49.000;12.074;2022-10-31T11:19:13;12.10;99.90
3628;DHT22;1830;49.000;12.074;2022-10-31T11:21:45;12.10;99.90
3628;DHT22;1830;49.000;12.074;2022-10-31T11:24:36;12.20;99.90
3628;DHT22;1830;49.000;12.074;2022-10-31T11:27:32;12.20;99.90
3628;DHT22;1830;49.000;12.074;2022-10-31T11:30:28;12.30;99.90
3628;DHT22;1830;49.000;12.074;2022-10-31T11:33:18;12.30;99.90
3628;DHT22;1830;49.000;12.074;2022-10-31T11:35:47;12.30;99.90
3628;DHT22;1830;49.000;12.074;2022-10-31T11:38:28;12.40;99.90
3628;DHT22;1830;49.000;12.074;2022-10-31T11:41:00;12.40;99.90
3628;DHT22;1830;49.000;12.074;2022-10-31T11:43:29;12.40;99.90
3628;DHT22;1830;49.000;12.074;2022-10-31T11:46:01;12.40;99.90
3628;DHT22;1830;49.000;12.074;2022-10-31T11:48:34;12.40;99.90
3628;DHT22;1830;49.000;12.074;2022-10-31T11:51:05;12.50;99.90
3628;DHT22;1830;49.000;12.074;2022-10-31T11:53:34;12.50;99.90
3628;DHT22;1830;49.000;12.074;2022-10-31T11:56:04;12.50;99.90
3628;DHT22;1830;49.000;12.074;2022-10-31T11:58:32;12.50;99.90
3628;DHT22;1830;49.000;12.074;2022-10-31T12:01:03;12.60;99.90
3628;DHT22;1830;49.000;12.074;2022-10-31T12:03:41;12.60;99.90
3628;DHT22;1830;49.000;12.074;2022-10-31T12:06:13;12.70;99.90
3628;DHT22;1830;49.000;12.074;2022-10-31T12:08:43;12.70;99.90
3628;DHT22;1830;49.000;12.074;2022-10-31T12:11:26;12.70;99.90
3628;DHT22;1830;49.000;12.074;2022-10-31T12:14:03;12.80;99.90
3628;DHT22;1830;49.000;12.074;2022-10-31T12:16:51;12.80;99.90
3628;DHT22;1830;49.000;12.074;2022-10-31T12:19:29;12.80;99.90
3628;DHT22;1830;49.000;12.074;2022-10-31T12:22:20;12.80;99.90
3628;DHT22;1830;49.000;12.074;2022-10-31T12:28:03;13.00;99.90
3628;DHT22;1830;49.000;12.074;2022-10-31T12:30:48;13.10;99.90
3628;DHT22;1830;49.000;12.074;2022-10-31T12:33:32;13.10;99.90
3628;DHT22;1830;49.000;12.074;2022-10-31T12:36:12;13.20;99.90
3628;DHT22;1830;49.000;12.074;2022-10-31T12:39:04;13.20;99.90
3628;DHT22;1830;49.000;12.074;2022-10-31T12:41:44;13.20;99.90
3628;DHT22;1830;49.000;12.074;2022-10-31T12:44:30;13.20;99.90
3628;DHT22;1830;49.000;12.074;2022-10-31T12:50:27;13.20;99.90
3628;DHT22;1830;49.000;12.074;2022-10-31T12:53:05;13.30;99.90
3628;DHT22;1830;49.000;12.074;2022-10-31T12:55:47;13.30;99.90
3628;DHT22;1830;49.000;12.074;2022-10-31T12:58:21;13.30;99.90
3628;DHT22;1830;49.000;12.074;2022-10-31T13:00:51;13.40;99.90
3628;DHT22;1830;49.000;12.074;2022-10-31T13:03:26;13.40;99.90
3628;DHT22;1830;49.000;12.074;2022-10-31T13:05:59;13.50;99.90
3628;DHT22;1830;49.000;12.074;2022-10-31T13:09:13;13.50;99.90
3628;DHT22;1830;49.000;12.074;2022-10-31T13:12:04;13.50;99.90
3628;DHT22;1830;49.000;12.074;2022-10-31T13:15:35;13.50;99.90
3628;DHT22;1830;49.000;12.074;2022-10-31T13:19:38;13.60;99.90
3628;DHT22;1830;49.000;12.074;2022-10-31T13:21:48;13.60;99.90
3628;DHT22;1830;49.000;12.074;2022-10-31T13:28:02;13.60;99.90
3628;DHT22;1830;49.000;12.074;2022-10-31T13:30:40;13.60;99.90
3628;DHT22;1830;49.000;12.074;2022-10-31T13:33:13;13.70;99.90
3628;DHT22;1830;49.000;12.074;2022-10-31T13:35:48;13.70;99.90
3628;DHT22;1830;49.000;12.074;2022-10-31T13:38:32;13.70;99.90
3628;DHT22;1830;49.000;12.074;2022-10-31T13:41:04;13.80;99.90
3628;DHT22;1830;49.000;12.074;2022-10-31T13:43:47;13.80;99.90
3628;DHT22;1830;49.000;12.074;2022-10-31T13:46:24;13.80;99.90
3628;DHT22;1830;49.000;12.074;2022-10-31T13:48:52;13.80;99.90
3628;DHT22;1830;49.000;12.074;2022-10-31T13:51:25;13.90;99.90
3628;DHT22;1830;49.000;12.074;2022-10-31T13:54:00;13.90;99.90
3628;DHT22;1830;49.000;12.074;2022-10-31T13:56:29;13.90;99.90
3628;DHT22;1830;49.000;12.074;2022-10-31T13:59:14;13.90;99.90
3628;DHT22;1830;49.000;12.074;2022-10-31T14:01:50;13.90;99.90
3628;DHT22;1830;49.000;12.074;2022-10-31T14:04:20;13.90;99.90
3628;DHT22;1830;49.000;12.074;2022-10-31T14:06:55;13.90;99.90
3628;DHT22;1830;49.000;12.074;2022-10-31T14:09:33;13.90;99.90
3628;DHT22;1830;49.000;12.074;2022-10-31T14:12:07;13.90;99.90
3628;DHT22;1830;49.000;12.074;2022-10-31T14:14:42;13.90;99.90
3628;DHT22;1830;49.000;12.074;2022-10-31T14:17:20;13.90;99.90
3628;DHT22;1830;49.000;12.074;2022-10-31T14:22:42;13.90;99.90
3628;DHT22;1830;49.000;12.074;2022-10-31T14:25:30;13.90;99.90
3628;DHT22;1830;49.000;12.074;2022-10-31T14:27:57;13.90;99.90
3628;DHT22;1830;49.000;12.074;2022-10-31T14:30:26;13.90;99.90
3628;DHT22;1830;49.000;12.074;2022-10-31T14:32:56;13.90;99.90
3628;DHT22;1830;49.000;12.074;2022-10-31T14:35:27;13.90;99.90
3628;DHT22;1830;49.000;12.074;2022-10-31T14:41:07;13.90;99.90
3628;DHT22;1830;49.000;12.074;2022-10-31T14:44:03;14.00;99.90
3628;DHT22;1830;49.000;12.074;2022-10-31T14:46:40;14.00;99.90
3628;DHT22;1830;49.000;12.074;2022-10-31T14:49:55;14.00;99.90
3628;DHT22;1830;49.000;12.074;2022-10-31T14:52:55;14.00;99.90
3628;DHT22;1830;49.000;12.074;2022-10-31T14:55:24;14.00;99.90
3628;DHT22;1830;49.000;12.074;2022-10-31T14:57:57;14.00;99.90
3628;DHT22;1830;49.000;12.074;2022-10-31T15:00:25;14.00;99.90
3628;DHT22;1830;49.000;12.074;2022-10-31T15:03:01;14.00;99.90
3628;DHT22;1830;49.000;12.074;2022-10-31T15:05:30;14.00;99.90
3628;DHT22;1830;49.000;12.074;2022-10-31T15:07:58;14.00;99.90
3628;DHT22;1830;49.000;12.074;2022-10-31T15:10:28;14.00;99.90
3628;DHT22;1830;49.000;12.074;2022-10-31T15:13:09;14.00;99.90
3628;DHT22;1830;49.000;12.074;2022-10-31T15:15:37;13.90;99.90
3628;DHT22;1830;49.000;12.074;2022-10-31T15:18:05;13.90;99.90
3628;DHT22;1830;49.000;12.074;2022-10-31T15:20:37;13.90;99.90
3628;DHT22;1830;49.000;12.074;2022-10-31T15:23:11;13.90;99.90
3628;DHT22;1830;49.000;12.074;2022-10-31T15:25:41;13.90;99.90
3628;DHT22;1830;49.000;12.074;2022-10-31T15:28:20;13.80;99.90
3628;DHT22;1830;49.000;12.074;2022-10-31T15:30:52;13.80;99.90
3628;DHT22;1830;49.000;12.074;2022-10-31T15:33:21;13.80;99.90
3628;DHT22;1830;49.000;12.074;2022-10-31T15:35:57;13.70;99.90
3628;DHT22;1830;49.000;12.074;2022-10-31T15:38:37;13.70;99.90
3628;DHT22;1830;49.000;12.074;2022-10-31T15:41:31;13.70;99.90
3628;DHT22;1830;49.000;12.074;2022-10-31T15:51:42;13.40;99.90
3628;DHT22;1830;49.000;12.074;2022-10-31T15:54:33;13.40;99.90
3628;DHT22;1830;49.000;12.074;2022-10-31T15:57:29;13.40;99.90
3628;DHT22;1830;49.000;12.074;2022-10-31T16:03:56;13.20;99.90
3628;DHT22;1830;49.000;12.074;2022-10-31T16:10:46;13.20;99.90
3628;DHT22;1830;49.000;12.074;2022-10-31T16:16:57;13.00;99.90
3628;DHT22;1830;49.000;12.074;2022-10-31T16:19:49;12.90;99.90
3628;DHT22;1830;49.000;12.074;2022-10-31T16:22:21;13.00;99.90
3628;DHT22;1830;49.000;12.074;2022-10-31T16:24:51;12.90;99.90
3628;DHT22;1830;49.000;12.074;2022-10-31T16:27:21;12.90;99.90
3628;DHT22;1830;49.000;12.074;2022-10-31T16:29:51;12.80;99.90
3628;DHT22;1830;49.000;12.074;2022-10-31T16:32:29;12.70;99.90
3628;DHT22;1830;49.000;12.074;2022-10-31T16:37:44;12.60;99.90
3628;DHT22;1830;49.000;12.074;2022-10-31T16:40:11;12.60;99.90
3628;DHT22;1830;49.000;12.074;2022-10-31T16:42:39;12.60;99.90
3628;DHT22;1830;49.000;12.074;2022-10-31T16:45:07;12.60;99.90
3628;DHT22;1830;49.000;12.074;2022-10-31T16:47:36;12.60;99.90
3628;DHT22;1830;49.000;12.074;2022-10-31T16:50:13;12.60;99.90
3628;DHT22;1830;49.000;12.074;2022-10-31T16:52:46;12.60;99.90
3628;DHT22;1830;49.000;12.074;2022-10-31T16:55:14;12.50;99.90
3628;DHT22;1830;49.000;12.074;2022-10-31T16:57:43;12.50;99.90
3628;DHT22;1830;49.000;12.074;2022-10-31T17:00:15;12.60;99.90
3628;DHT22;1830;49.000;12.074;2022-10-31T17:02:55;12.50;99.90
3628;DHT22;1830;49.000;12.074;2022-10-31T17:05:24;12.40;99.90
3628;DHT22;1830;49.000;12.074;2022-10-31T17:07:55;12.40;99.90
3628;DHT22;1830;49.000;12.074;2022-10-31T17:10:22;12.50;99.90
3628;DHT22;1830;49.000;12.074;2022-10-31T17:12:52;12.50;99.90
3628;DHT22;1830;49.000;12.074;2022-10-31T17:15:24;12.50;99.90
3628;DHT22;1830;49.000;12.074;2022-10-31T17:17:52;12.50;99.90
3628;DHT22;1830;49.000;12.074;2022-10-31T17:20:21;12.50;99.90
3628;DHT22;1830;49.000;12.074;2022-10-31T17:22:50;12.40;99.90
3628;DHT22;1830;49.000;12.074;2022-10-31T17:25:19;12.40;99.90
3628;DHT22;1830;49.000;12.074;2022-10-31T17:27:47;12.40;99.90
3628;DHT22;1830;49.000;12.074;2022-10-31T17:30:15;12.40;99.90
3628;DHT22;1830;49.000;12.074;2022-10-31T17:32:43;12.40;99.90
3628;DHT22;1830;49.000;12.074;2022-10-31T17:35:12;12.40;99.90
3628;DHT22;1830;49.000;12.074;2022-10-31T17:37:39;12.30;99.90
3628;DHT22;1830;49.000;12.074;2022-10-31T17:40:10;12.30;99.90
3628;DHT22;1830;49.000;12.074;2022-10-31T17:42:37;12.20;99.90
3628;DHT22;1830;49.000;12.074;2022-10-31T17:45:05;12.20;99.90
3628;DHT22;1830;49.000;12.074;2022-10-31T17:47:33;12.20;99.90
3628;DHT22;1830;49.000;12.074;2022-10-31T17:50:00;12.10;99.90
3628;DHT22;1830;49.000;12.074;2022-10-31T17:52:27;12.10;99.90
3628;DHT22;1830;49.000;12.074;2022-10-31T17:55:08;12.10;99.90
3628;DHT22;1830;49.000;12.074;2022-10-31T17:57:36;12.00;99.90
3628;DHT22;1830;49.000;12.074;2022-10-31T18:00:05;12.00;99.90
3628;DHT22;1830;49.000;12.074;2022-10-31T18:02:33;12.00;99.90
3628;DHT22;1830;49.000;12.074;2022-10-31T18:05:01;11.90;99.90
3628;DHT22;1830;49.000;12.074;2022-10-31T18:07:28;11.90;99.90
3628;DHT22;1830;49.000;12.074;2022-10-31T18:09:55;11.90;99.90
3628;DHT22;1830;49.000;12.074;2022-10-31T18:12:24;11.90;99.90
3628;DHT22;1830;49.000;12.074;2022-10-31T18:14:52;11.90;99.90
3628;DHT22;1830;49.000;12.074;2022-10-31T18:17:20;11.90;99.90
3628;DHT22;1830;49.000;12.074;2022-10-31T18:19:47;11.80;99.90
3628;DHT22;1830;49.000;12.074;2022-10-31T18:22:14;11.80;99.90
3628;DHT22;1830;49.000;12.074;2022-10-31T18:24:41;11.70;99.90
3628;DHT22;1830;49.000;12.074;2022-10-31T18:27:08;11.70;99.90
3628;DHT22;1830;49.000;12.074;2022-10-31T18:29:36;11.70;99.90
3628;DHT22;1830;49.000;12.074;2022-10-31T18:32:04;11.70;99.90
3628;DHT22;1830;49.000;12.074;2022-10-31T18:34:31;11.60;99.90
3628;DHT22;1830;49.000;12.074;2022-10-31T18:36:58;11.60;99.90
3628;DHT22;1830;49.000;12.074;2022-10-31T18:39:25;11.60;99.90